Terminal Aerodrome Forecast
Issued by NWS

Current Version | Previous Version | Text Only | Print | Product List | Glossary On
Versions: 1 2 3 4 5 6 7 8 9 10 11 12 13 14 15 16 17 18 19
457
FTUS43 KDTX 282320
TAFDET
TAF
KDET 282320Z 2900/2924 06007KT P6SM OVC045
     FM290100 06005KT P6SM OVC045
     FM291300 03007KT 6SM -SHRA OVC035
     FM291900 06010KT P6SM OVC045=

USA.gov is the U.S. government's official web portal to all federal, state and local government web resources and services.